weather.gov     
National Weather Service

Terminal Aerodrome Forecast
NWS Homepage
This page is being discontinued on March 12, 2014.
The same data is available at this site. Please update your bookmarks.
Thank you, and we apologize for the inconvenience.
Please send an email to SR-SRH.Webmaster@noaa.gov with any concerns.


Current Version
Previous Version:    01  02  03  04  05  06  07  08  09  10  11  12  13  14  15  16  17  18  19  20  21  22  23  24  25  26  27  28  29  30  
   31  32  33  34  35  36  37  38  39  
[Printable]
204
FTUS46 KOTX 270242 AAB
TAFSFF
TAF AMD
KSFF 270242Z 2703/2724 VRB04KT 1/2SM FG OVC004
      TEMPO 2703/2706 2SM BR OVC004
     FM270600 VRB03KT 4SM BR BKN015 BKN050
     FM271200 20005KT P6SM -SHRA OVC050
     FM271900 21010G18KT P6SM BKN050 OVC100=




204
FTUS46 KOTX 270242 AAB
TAFSFF
TAF AMD
KSFF 270242Z 2703/2724 VRB04KT 1/2SM FG OVC004
      TEMPO 2703/2706 2SM BR OVC004
     FM270600 VRB03KT 4SM BR BKN015 BKN050
     FM271200 20005KT P6SM -SHRA OVC050
     FM271900 21010G18KT P6SM BKN050 OVC100=


U.S. Dept. of Commerce
NOAA National Weather Service
1325 East West Highway
Silver Spring, MD 20910
E-mail: w-nws.webmaster@noaa.gov
Page last modified: May 16, 2007
NATIONAL WEATHER SERVICE: for Safety, for Work, for Fun - FOR LIFE